Terminal Aerodrome Forecast
Issued by NWS Charleston, WV

Current Version | Previous Version | Graphics & Text | Print | Product List | Glossary On
Versions: 1 2 3 4 5 6 7 8 9 10 11 12 13 14 15 16 17 18 19 20 21 22
519
FTUS41 KRLX 172343
TAFPKB
TAF
KPKB 172343Z 1800/1824 06008KT P6SM BKN070
     FM180800 07007KT 5SM -SHRA OVC015
     FM181100 07009KT 2SM BR BKN002
     FM181300 07009KT 6SM SHRA OVC015
     FM181700 08009KT P6SM SHRA OVC020=

USA.gov is the U.S. government's official web portal to all federal, state and local government web resources and services.